sensor_id;sensor_type;location;lat;lon;timestamp;temperature;humidity
70271;SHT31;57680;54.292;18.598;2022-10-31T00:01:36;10.07;95.43
70271;SHT31;57680;54.292;18.598;2022-10-31T00:04:02;10.08;95.63
70271;SHT31;57680;54.292;18.598;2022-10-31T00:06:28;10.08;95.37
70271;SHT31;57680;54.292;18.598;2022-10-31T00:08:56;10.01;95.32
70271;SHT31;57680;54.292;18.598;2022-10-31T00:11:22;9.94;95.62
70271;SHT31;57680;54.292;18.598;2022-10-31T00:13:48;9.87;95.57
70271;SHT31;57680;54.292;18.598;2022-10-31T00:16:18;9.76;95.56
70271;SHT31;57680;54.292;18.598;2022-10-31T00:18:47;9.65;95.28
70271;SHT31;57680;54.292;18.598;2022-10-31T00:21:12;9.55;95.28
70271;SHT31;57680;54.292;18.598;2022-10-31T00:23:38;9.40;95.12
70271;SHT31;57680;54.292;18.598;2022-10-31T00:26:04;9.26;95.09
70271;SHT31;57680;54.292;18.598;2022-10-31T00:28:30;9.12;95.13
70271;SHT31;57680;54.292;18.598;2022-10-31T00:31:01;9.00;95.05
70271;SHT31;57680;54.292;18.598;2022-10-31T00:33:27;8.87;95.27
70271;SHT31;57680;54.292;18.598;2022-10-31T00:35:53;8.64;94.33
70271;SHT31;57680;54.292;18.598;2022-10-31T00:38:18;8.37;94.00
70271;SHT31;57680;54.292;18.598;2022-10-31T00:40:44;8.09;93.97
70271;SHT31;57680;54.292;18.598;2022-10-31T00:43:10;7.95;94.99
70271;SHT31;57680;54.292;18.598;2022-10-31T00:45:35;7.89;95.55
70271;SHT31;57680;54.292;18.598;2022-10-31T00:48:01;7.79;95.15
70271;SHT31;57680;54.292;18.598;2022-10-31T00:50:26;7.71;95.26
70271;SHT31;57680;54.292;18.598;2022-10-31T00:52:52;7.68;95.72
70271;SHT31;57680;54.292;18.598;2022-10-31T00:55:17;7.74;96.70
70271;SHT31;57680;54.292;18.598;2022-10-31T00:57:46;7.88;97.74
70271;SHT31;57680;54.292;18.598;2022-10-31T01:00:12;8.05;97.86
70271;SHT31;57680;54.292;18.598;2022-10-31T01:02:37;8.21;97.91
70271;SHT31;57680;54.292;18.598;2022-10-31T01:05:03;8.29;97.86
70271;SHT31;57680;54.292;18.598;2022-10-31T01:07:29;8.44;98.80
70271;SHT31;57680;54.292;18.598;2022-10-31T01:09:54;8.50;98.31
70271;SHT31;57680;54.292;18.598;2022-10-31T01:12:20;8.77;99.75
70271;SHT31;57680;54.292;18.598;2022-10-31T01:14:46;9.04;99.84
70271;SHT31;57680;54.292;18.598;2022-10-31T01:17:12;9.25;99.76
70271;SHT31;57680;54.292;18.598;2022-10-31T01:19:38;9.38;99.36
70271;SHT31;57680;54.292;18.598;2022-10-31T01:22:04;9.56;99.37
70271;SHT31;57680;54.292;18.598;2022-10-31T01:24:30;9.65;99.24
70271;SHT31;57680;54.292;18.598;2022-10-31T01:26:56;9.72;99.16
70271;SHT31;57680;54.292;18.598;2022-10-31T01:29:21;9.80;99.25
70271;SHT31;57680;54.292;18.598;2022-10-31T01:31:47;9.89;99.28
70271;SHT31;57680;54.292;18.598;2022-10-31T01:34:14;9.98;99.49
70271;SHT31;57680;54.292;18.598;2022-10-31T01:36:40;10.18;99.70
70271;SHT31;57680;54.292;18.598;2022-10-31T01:39:12;10.34;99.80
70271;SHT31;57680;54.292;18.598;2022-10-31T01:41:41;10.45;99.66
70271;SHT31;57680;54.292;18.598;2022-10-31T01:46:53;10.66;99.59
70271;SHT31;57680;54.292;18.598;2022-10-31T01:49:43;10.72;99.39
70271;SHT31;57680;54.292;18.598;2022-10-31T01:52:17;10.79;99.30
70271;SHT31;57680;54.292;18.598;2022-10-31T01:54:50;10.82;99.12
70271;SHT31;57680;54.292;18.598;2022-10-31T01:57:18;10.24;95.50
70271;SHT31;57680;54.292;18.598;2022-10-31T01:59:49;9.69;96.24
70271;SHT31;57680;54.292;18.598;2022-10-31T02:02:17;9.45;96.17
70271;SHT31;57680;54.292;18.598;2022-10-31T02:04:44;9.34;97.31
70271;SHT31;57680;54.292;18.598;2022-10-31T02:07:20;9.28;97.72
70271;SHT31;57680;54.292;18.598;2022-10-31T02:09:49;9.28;97.76
70271;SHT31;57680;54.292;18.598;2022-10-31T02:12:16;9.26;97.99
70271;SHT31;57680;54.292;18.598;2022-10-31T02:14:42;9.35;98.38
70271;SHT31;57680;54.292;18.598;2022-10-31T02:17:08;9.43;98.41
70271;SHT31;57680;54.292;18.598;2022-10-31T02:19:45;9.45;98.24
70271;SHT31;57680;54.292;18.598;2022-10-31T02:34:10;9.38;97.80
70271;SHT31;57680;54.292;18.598;2022-10-31T02:36:52;9.35;97.68
70271;SHT31;57680;54.292;18.598;2022-10-31T02:42:18;9.24;96.51
70271;SHT31;57680;54.292;18.598;2022-10-31T02:45:44;9.12;96.63
70271;SHT31;57680;54.292;18.598;2022-10-31T02:47:53;9.03;96.87
70271;SHT31;57680;54.292;18.598;2022-10-31T02:50:26;8.89;96.31
70271;SHT31;57680;54.292;18.598;2022-10-31T02:52:54;8.78;96.33
70271;SHT31;57680;54.292;18.598;2022-10-31T02:57:48;8.67;97.05
70271;SHT31;57680;54.292;18.598;2022-10-31T03:00:15;8.67;97.06
70271;SHT31;57680;54.292;18.598;2022-10-31T03:02:43;8.56;96.21
70271;SHT31;57680;54.292;18.598;2022-10-31T03:08:18;8.43;97.12
70271;SHT31;57680;54.292;18.598;2022-10-31T03:10:53;8.39;96.99
70271;SHT31;57680;54.292;18.598;2022-10-31T03:13:46;8.30;96.91
70271;SHT31;57680;54.292;18.598;2022-10-31T03:16:16;8.23;96.53
70271;SHT31;57680;54.292;18.598;2022-10-31T03:19:03;8.26;97.31
70271;SHT31;57680;54.292;18.598;2022-10-31T03:21:35;8.22;97.23
70271;SHT31;57680;54.292;18.598;2022-10-31T03:24:02;8.09;96.26
70271;SHT31;57680;54.292;18.598;2022-10-31T03:26:29;7.94;96.39
70271;SHT31;57680;54.292;18.598;2022-10-31T03:29:05;7.79;96.37
70271;SHT31;57680;54.292;18.598;2022-10-31T03:31:49;7.77;96.35
70271;SHT31;57680;54.292;18.598;2022-10-31T03:34:17;7.70;96.71
70271;SHT31;57680;54.292;18.598;2022-10-31T03:36:45;7.64;96.37
70271;SHT31;57680;54.292;18.598;2022-10-31T03:39:14;7.64;96.52
70271;SHT31;57680;54.292;18.598;2022-10-31T03:41:45;7.60;96.98
70271;SHT31;57680;54.292;18.598;2022-10-31T03:44:16;7.57;97.20
70271;SHT31;57680;54.292;18.598;2022-10-31T03:46:42;7.58;97.51
70271;SHT31;57680;54.292;18.598;2022-10-31T03:49:09;7.61;97.54
70271;SHT31;57680;54.292;18.598;2022-10-31T03:51:37;7.60;97.09
70271;SHT31;57680;54.292;18.598;2022-10-31T03:56:50;7.53;97.61
70271;SHT31;57680;54.292;18.598;2022-10-31T04:00:20;7.50;97.76
70271;SHT31;57680;54.292;18.598;2022-10-31T04:02:17;7.54;97.82
70271;SHT31;57680;54.292;18.598;2022-10-31T04:04:44;7.48;98.31
70271;SHT31;57680;54.292;18.598;2022-10-31T04:07:12;7.48;98.48
70271;SHT31;57680;54.292;18.598;2022-10-31T04:09:41;7.48;98.46
70271;SHT31;57680;54.292;18.598;2022-10-31T04:12:09;7.50;98.71
70271;SHT31;57680;54.292;18.598;2022-10-31T04:14:38;7.54;98.73
70271;SHT31;57680;54.292;18.598;2022-10-31T04:17:07;7.51;98.35
70271;SHT31;57680;54.292;18.598;2022-10-31T04:19:34;7.54;98.30
70271;SHT31;57680;54.292;18.598;2022-10-31T04:22:01;7.50;98.31
70271;SHT31;57680;54.292;18.598;2022-10-31T04:24:26;7.46;98.50
70271;SHT31;57680;54.292;18.598;2022-10-31T04:26:52;7.47;98.22
70271;SHT31;57680;54.292;18.598;2022-10-31T04:29:17;7.46;98.60
70271;SHT31;57680;54.292;18.598;2022-10-31T04:31:43;7.46;98.85
70271;SHT31;57680;54.292;18.598;2022-10-31T04:34:08;7.50;99.14
70271;SHT31;57680;54.292;18.598;2022-10-31T04:36:34;7.53;99.16
70271;SHT31;57680;54.292;18.598;2022-10-31T04:39:00;7.55;99.14
70271;SHT31;57680;54.292;18.598;2022-10-31T04:41:25;7.60;99.12
70271;SHT31;57680;54.292;18.598;2022-10-31T04:43:51;7.63;99.24
70271;SHT31;57680;54.292;18.598;2022-10-31T04:46:16;7.70;99.26
70271;SHT31;57680;54.292;18.598;2022-10-31T04:48:42;7.74;99.25
70271;SHT31;57680;54.292;18.598;2022-10-31T04:51:07;7.79;99.35
70271;SHT31;57680;54.292;18.598;2022-10-31T04:53:33;7.84;99.33
70271;SHT31;57680;54.292;18.598;2022-10-31T04:55:59;7.86;99.39
70271;SHT31;57680;54.292;18.598;2022-10-31T04:58:28;7.95;99.51
70271;SHT31;57680;54.292;18.598;2022-10-31T05:00:54;8.03;99.55
70271;SHT31;57680;54.292;18.598;2022-10-31T05:03:20;8.12;99.53
70271;SHT31;57680;54.292;18.598;2022-10-31T05:05:46;8.17;99.48
70271;SHT31;57680;54.292;18.598;2022-10-31T05:08:11;8.22;99.46
70271;SHT31;57680;54.292;18.598;2022-10-31T05:10:37;8.29;99.45
70271;SHT31;57680;54.292;18.598;2022-10-31T05:13:04;8.37;99.48
70271;SHT31;57680;54.292;18.598;2022-10-31T05:15:31;8.39;99.42
70271;SHT31;57680;54.292;18.598;2022-10-31T05:17:57;8.46;99.49
70271;SHT31;57680;54.292;18.598;2022-10-31T05:20:25;8.56;99.60
70271;SHT31;57680;54.292;18.598;2022-10-31T05:22:53;8.64;99.76
70271;SHT31;57680;54.292;18.598;2022-10-31T05:25:20;8.71;99.77
70271;SHT31;57680;54.292;18.598;2022-10-31T05:27:48;8.83;99.80
70271;SHT31;57680;54.292;18.598;2022-10-31T05:30:16;8.87;99.70
70271;SHT31;57680;54.292;18.598;2022-10-31T05:32:44;8.89;99.42
70271;SHT31;57680;54.292;18.598;2022-10-31T05:35:13;8.88;99.20
70271;SHT31;57680;54.292;18.598;2022-10-31T05:37:39;8.87;99.18
70271;SHT31;57680;54.292;18.598;2022-10-31T05:40:07;8.84;99.20
70271;SHT31;57680;54.292;18.598;2022-10-31T05:42:33;8.87;99.28
70271;SHT31;57680;54.292;18.598;2022-10-31T05:44:58;8.88;99.37
70271;SHT31;57680;54.292;18.598;2022-10-31T05:47:24;8.94;99.54
70271;SHT31;57680;54.292;18.598;2022-10-31T05:49:50;8.97;99.54
70271;SHT31;57680;54.292;18.598;2022-10-31T05:52:16;9.04;99.57
70271;SHT31;57680;54.292;18.598;2022-10-31T05:54:41;9.08;99.68
70271;SHT31;57680;54.292;18.598;2022-10-31T05:57:07;9.15;99.73
70271;SHT31;57680;54.292;18.598;2022-10-31T05:59:33;9.21;99.64
70271;SHT31;57680;54.292;18.598;2022-10-31T06:01:58;9.24;99.55
70271;SHT31;57680;54.292;18.598;2022-10-31T06:04:24;9.25;99.48
70271;SHT31;57680;54.292;18.598;2022-10-31T06:06:49;9.25;99.41
70271;SHT31;57680;54.292;18.598;2022-10-31T06:09:15;9.28;99.45
70271;SHT31;57680;54.292;18.598;2022-10-31T06:11:41;9.31;99.47
70271;SHT31;57680;54.292;18.598;2022-10-31T06:14:07;9.34;99.30
70271;SHT31;57680;54.292;18.598;2022-10-31T06:16:33;9.35;99.25
70271;SHT31;57680;54.292;18.598;2022-10-31T06:18:58;9.38;99.37
70271;SHT31;57680;54.292;18.598;2022-10-31T06:21:24;9.40;99.41
70271;SHT31;57680;54.292;18.598;2022-10-31T06:23:50;9.45;99.45
70271;SHT31;57680;54.292;18.598;2022-10-31T06:26:16;9.46;99.38
70271;SHT31;57680;54.292;18.598;2022-10-31T06:28:41;9.49;99.32
70271;SHT31;57680;54.292;18.598;2022-10-31T06:31:07;9.53;99.32
70271;SHT31;57680;54.292;18.598;2022-10-31T06:33:33;9.57;99.43
70271;SHT31;57680;54.292;18.598;2022-10-31T06:35:59;9.60;99.30
70271;SHT31;57680;54.292;18.598;2022-10-31T06:38:28;9.66;99.47
70271;SHT31;57680;54.292;18.598;2022-10-31T06:40:54;9.73;99.49
70271;SHT31;57680;54.292;18.598;2022-10-31T06:43:20;9.80;99.61
70271;SHT31;57680;54.292;18.598;2022-10-31T06:45:46;9.90;99.58
70271;SHT31;57680;54.292;18.598;2022-10-31T06:48:12;9.94;99.35
70271;SHT31;57680;54.292;18.598;2022-10-31T06:50:38;10.01;99.40
70271;SHT31;57680;54.292;18.598;2022-10-31T06:53:04;10.07;99.42
70271;SHT31;57680;54.292;18.598;2022-10-31T06:55:29;10.13;99.39
70271;SHT31;57680;54.292;18.598;2022-10-31T06:57:57;10.24;99.42
70271;SHT31;57680;54.292;18.598;2022-10-31T07:00:23;10.28;99.50
70271;SHT31;57680;54.292;18.598;2022-10-31T07:02:58;10.37;99.44
70271;SHT31;57680;54.292;18.598;2022-10-31T07:05:24;10.42;99.31
70271;SHT31;57680;54.292;18.598;2022-10-31T07:07:57;10.48;99.25
70271;SHT31;57680;54.292;18.598;2022-10-31T07:10:25;10.51;99.18
70271;SHT31;57680;54.292;18.598;2022-10-31T07:12:58;10.56;99.18
70271;SHT31;57680;54.292;18.598;2022-10-31T07:15:25;10.65;99.12
70271;SHT31;57680;54.292;18.598;2022-10-31T07:17:51;10.69;99.04
70271;SHT31;57680;54.292;18.598;2022-10-31T07:20:17;10.76;99.00
70271;SHT31;57680;54.292;18.598;2022-10-31T07:22:43;10.76;98.92
70271;SHT31;57680;54.292;18.598;2022-10-31T07:25:10;10.86;99.11
70271;SHT31;57680;54.292;18.598;2022-10-31T07:30:02;10.97;98.82
70271;SHT31;57680;54.292;18.598;2022-10-31T07:32:37;10.97;98.71
70271;SHT31;57680;54.292;18.598;2022-10-31T07:35:03;11.00;98.61
70271;SHT31;57680;54.292;18.598;2022-10-31T07:37:29;11.00;98.60
70271;SHT31;57680;54.292;18.598;2022-10-31T07:39:54;11.09;98.51
70271;SHT31;57680;54.292;18.598;2022-10-31T07:42:20;11.12;98.55
70271;SHT31;57680;54.292;18.598;2022-10-31T07:44:45;11.12;98.34
70271;SHT31;57680;54.292;18.598;2022-10-31T07:47:11;11.22;98.46
70271;SHT31;57680;54.292;18.598;2022-10-31T07:49:37;11.26;98.46
70271;SHT31;57680;54.292;18.598;2022-10-31T07:52:03;11.37;98.75
70271;SHT31;57680;54.292;18.598;2022-10-31T07:54:28;11.51;98.60
70271;SHT31;57680;54.292;18.598;2022-10-31T07:56:54;11.58;98.47
70271;SHT31;57680;54.292;18.598;2022-10-31T07:59:19;11.63;98.44
70271;SHT31;57680;54.292;18.598;2022-10-31T08:01:45;11.73;98.44
70271;SHT31;57680;54.292;18.598;2022-10-31T08:04:10;11.74;97.96
70271;SHT31;57680;54.292;18.598;2022-10-31T08:06:36;11.73;97.82
70271;SHT31;57680;54.292;18.598;2022-10-31T08:09:02;11.75;97.74
70271;SHT31;57680;54.292;18.598;2022-10-31T08:11:27;11.82;97.96
70271;SHT31;57680;54.292;18.598;2022-10-31T08:13:53;11.89;97.96
70271;SHT31;57680;54.292;18.598;2022-10-31T08:16:19;11.94;97.78
70271;SHT31;57680;54.292;18.598;2022-10-31T08:18:44;11.94;97.38
70271;SHT31;57680;54.292;18.598;2022-10-31T08:21:10;11.98;97.51
70271;SHT31;57680;54.292;18.598;2022-10-31T08:23:35;12.01;97.31
70271;SHT31;57680;54.292;18.598;2022-10-31T08:26:01;12.05;97.61
70271;SHT31;57680;54.292;18.598;2022-10-31T08:28:27;12.09;97.45
70271;SHT31;57680;54.292;18.598;2022-10-31T08:30:52;12.18;97.56
70271;SHT31;57680;54.292;18.598;2022-10-31T08:33:18;12.25;97.33
70271;SHT31;57680;54.292;18.598;2022-10-31T08:35:44;12.29;97.10
70271;SHT31;57680;54.292;18.598;2022-10-31T08:38:11;12.35;96.94
70271;SHT31;57680;54.292;18.598;2022-10-31T08:40:37;12.39;96.80
70271;SHT31;57680;54.292;18.598;2022-10-31T08:43:15;12.47;96.72
70271;SHT31;57680;54.292;18.598;2022-10-31T08:45:41;12.53;96.74
70271;SHT31;57680;54.292;18.598;2022-10-31T08:48:13;12.56;96.47
70271;SHT31;57680;54.292;18.598;2022-10-31T08:50:39;12.60;96.37
70271;SHT31;57680;54.292;18.598;2022-10-31T08:53:09;12.61;96.12
70271;SHT31;57680;54.292;18.598;2022-10-31T08:55:35;12.61;96.03
70271;SHT31;57680;54.292;18.598;2022-10-31T08:58:03;12.60;96.25
70271;SHT31;57680;54.292;18.598;2022-10-31T09:00:29;12.66;96.20
70271;SHT31;57680;54.292;18.598;2022-10-31T09:02:58;12.72;96.06
70271;SHT31;57680;54.292;18.598;2022-10-31T09:05:24;12.73;95.87
70271;SHT31;57680;54.292;18.598;2022-10-31T09:07:50;12.79;95.92
70271;SHT31;57680;54.292;18.598;2022-10-31T09:10:16;12.81;95.63
70271;SHT31;57680;54.292;18.598;2022-10-31T09:12:41;12.87;95.68
70271;SHT31;57680;54.292;18.598;2022-10-31T09:15:08;12.91;95.58
70271;SHT31;57680;54.292;18.598;2022-10-31T09:17:33;12.91;95.40
70271;SHT31;57680;54.292;18.598;2022-10-31T09:19:59;12.94;95.28
70271;SHT31;57680;54.292;18.598;2022-10-31T09:22:24;12.93;95.14
70271;SHT31;57680;54.292;18.598;2022-10-31T09:24:50;12.90;95.06
70271;SHT31;57680;54.292;18.598;2022-10-31T09:27:16;12.93;95.10
70271;SHT31;57680;54.292;18.598;2022-10-31T09:29:41;13.01;95.28
70271;SHT31;57680;54.292;18.598;2022-10-31T09:32:07;13.05;95.10
70271;SHT31;57680;54.292;18.598;2022-10-31T09:34:33;13.10;94.78
70271;SHT31;57680;54.292;18.598;2022-10-31T09:36:58;13.12;94.81
70271;SHT31;57680;54.292;18.598;2022-10-31T09:39:24;13.16;94.64
70271;SHT31;57680;54.292;18.598;2022-10-31T09:44:59;13.32;94.47
70271;SHT31;57680;54.292;18.598;2022-10-31T09:50:39;13.46;93.98
70271;SHT31;57680;54.292;18.598;2022-10-31T09:53:12;13.48;93.96
70271;SHT31;57680;54.292;18.598;2022-10-31T09:55:44;13.51;93.69
70271;SHT31;57680;54.292;18.598;2022-10-31T09:58:18;13.48;93.43
70271;SHT31;57680;54.292;18.598;2022-10-31T10:00:46;13.45;93.40
70271;SHT31;57680;54.292;18.598;2022-10-31T10:03:17;13.45;93.56
70271;SHT31;57680;54.292;18.598;2022-10-31T10:06:14;13.42;93.26
70271;SHT31;57680;54.292;18.598;2022-10-31T10:08:41;13.42;93.42
70271;SHT31;57680;54.292;18.598;2022-10-31T10:19:57;13.38;93.86
70271;SHT31;57680;54.292;18.598;2022-10-31T10:25:28;13.42;93.65
70271;SHT31;57680;54.292;18.598;2022-10-31T10:28:16;13.45;93.53
70271;SHT31;57680;54.292;18.598;2022-10-31T10:30:50;13.46;93.71
70271;SHT31;57680;54.292;18.598;2022-10-31T10:33:41;13.49;93.78
70271;SHT31;57680;54.292;18.598;2022-10-31T10:36:18;13.52;93.83
70271;SHT31;57680;54.292;18.598;2022-10-31T10:38:53;13.51;93.53
70271;SHT31;57680;54.292;18.598;2022-10-31T10:41:22;13.51;93.78
70271;SHT31;57680;54.292;18.598;2022-10-31T10:43:50;13.48;93.99
70271;SHT31;57680;54.292;18.598;2022-10-31T10:52:19;13.56;93.97
70271;SHT31;57680;54.292;18.598;2022-10-31T10:54:58;13.58;94.06
70271;SHT31;57680;54.292;18.598;2022-10-31T10:57:50;13.56;94.08
70271;SHT31;57680;54.292;18.598;2022-10-31T11:00:21;13.62;93.92
70271;SHT31;57680;54.292;18.598;2022-10-31T11:02:47;13.55;93.94
70271;SHT31;57680;54.292;18.598;2022-10-31T11:05:30;13.58;94.51
70271;SHT31;57680;54.292;18.598;2022-10-31T11:07:58;13.59;94.51
70271;SHT31;57680;54.292;18.598;2022-10-31T11:10:24;13.63;94.10
70271;SHT31;57680;54.292;18.598;2022-10-31T11:13:03;13.67;94.46
70271;SHT31;57680;54.292;18.598;2022-10-31T11:16:27;13.76;94.53
70271;SHT31;57680;54.292;18.598;2022-10-31T11:18:27;13.79;94.23
70271;SHT31;57680;54.292;18.598;2022-10-31T11:20:55;13.80;94.01
70271;SHT31;57680;54.292;18.598;2022-10-31T11:23:24;13.80;94.11
70271;SHT31;57680;54.292;18.598;2022-10-31T11:28:17;13.80;94.14
70271;SHT31;57680;54.292;18.598;2022-10-31T11:30:52;13.86;94.49
70271;SHT31;57680;54.292;18.598;2022-10-31T11:33:39;13.79;93.73
70271;SHT31;57680;54.292;18.598;2022-10-31T11:36:24;13.72;93.81
70271;SHT31;57680;54.292;18.598;2022-10-31T11:38:51;13.70;94.18
70271;SHT31;57680;54.292;18.598;2022-10-31T11:41:24;13.74;94.07
70271;SHT31;57680;54.292;18.598;2022-10-31T11:46:52;13.73;93.20
70271;SHT31;57680;54.292;18.598;2022-10-31T11:49:40;13.63;92.92
70271;SHT31;57680;54.292;18.598;2022-10-31T11:54:48;13.63;93.57
70271;SHT31;57680;54.292;18.598;2022-10-31T11:59:56;13.63;93.44
70271;SHT31;57680;54.292;18.598;2022-10-31T12:02:23;13.56;93.29
70271;SHT31;57680;54.292;18.598;2022-10-31T12:07:25;13.53;93.51
70271;SHT31;57680;54.292;18.598;2022-10-31T12:09:51;13.51;93.86
70271;SHT31;57680;54.292;18.598;2022-10-31T12:12:38;13.51;94.00
70271;SHT31;57680;54.292;18.598;2022-10-31T12:15:29;13.48;93.75
70271;SHT31;57680;54.292;18.598;2022-10-31T12:23:46;13.38;93.69
70271;SHT31;57680;54.292;18.598;2022-10-31T12:26:47;13.35;93.60
70271;SHT31;57680;54.292;18.598;2022-10-31T12:35:20;13.21;93.66
70271;SHT31;57680;54.292;18.598;2022-10-31T12:41:44;13.22;93.85
70271;SHT31;57680;54.292;18.598;2022-10-31T12:59:40;13.21;94.04
70271;SHT31;57680;54.292;18.598;2022-10-31T13:02:20;13.22;94.01
70271;SHT31;57680;54.292;18.598;2022-10-31T13:04:55;13.21;93.85
70271;SHT31;57680;54.292;18.598;2022-10-31T13:07:35;13.19;94.19
70271;SHT31;57680;54.292;18.598;2022-10-31T13:10:31;13.16;94.32
70271;SHT31;57680;54.292;18.598;2022-10-31T13:13:20;13.18;94.53
70271;SHT31;57680;54.292;18.598;2022-10-31T13:16:00;13.21;94.72
70271;SHT31;57680;54.292;18.598;2022-10-31T13:18:36;13.19;94.53
70271;SHT31;57680;54.292;18.598;2022-10-31T13:21:09;13.19;94.70
70271;SHT31;57680;54.292;18.598;2022-10-31T13:23:37;13.19;94.56
70271;SHT31;57680;54.292;18.598;2022-10-31T13:26:12;13.21;94.51
70271;SHT31;57680;54.292;18.598;2022-10-31T13:28:46;13.22;94.46
70271;SHT31;57680;54.292;18.598;2022-10-31T13:31:13;13.24;94.51
70271;SHT31;57680;54.292;18.598;2022-10-31T13:38:58;13.21;94.28
70271;SHT31;57680;54.292;18.598;2022-10-31T13:44:26;13.16;94.38
70271;SHT31;57680;54.292;18.598;2022-10-31T13:46:55;13.15;94.43
70271;SHT31;57680;54.292;18.598;2022-10-31T13:51:49;13.11;94.46
70271;SHT31;57680;54.292;18.598;2022-10-31T13:54:22;13.07;94.59
70271;SHT31;57680;54.292;18.598;2022-10-31T13:56:50;13.03;94.60
70271;SHT31;57680;54.292;18.598;2022-10-31T13:59:22;13.03;94.67
70271;SHT31;57680;54.292;18.598;2022-10-31T14:01:59;12.98;94.73
70271;SHT31;57680;54.292;18.598;2022-10-31T14:04:37;12.88;94.59
70271;SHT31;57680;54.292;18.598;2022-10-31T14:07:12;12.90;93.95
70271;SHT31;57680;54.292;18.598;2022-10-31T14:15:25;12.68;95.12
70271;SHT31;57680;54.292;18.598;2022-10-31T14:17:57;12.72;95.23
70271;SHT31;57680;54.292;18.598;2022-10-31T14:29:02;12.74;95.55
70271;SHT31;57680;54.292;18.598;2022-10-31T14:31:44;12.70;95.46
70271;SHT31;57680;54.292;18.598;2022-10-31T14:41:13;12.67;95.85
70271;SHT31;57680;54.292;18.598;2022-10-31T14:43:37;12.67;95.91
70271;SHT31;57680;54.292;18.598;2022-10-31T14:46:36;12.67;96.15
70271;SHT31;57680;54.292;18.598;2022-10-31T14:51:48;12.64;96.25
70271;SHT31;57680;54.292;18.598;2022-10-31T14:54:19;12.63;96.21
70271;SHT31;57680;54.292;18.598;2022-10-31T14:56:59;12.60;96.39
70271;SHT31;57680;54.292;18.598;2022-10-31T14:59:30;12.60;96.43
70271;SHT31;57680;54.292;18.598;2022-10-31T15:04:34;12.54;96.27
70271;SHT31;57680;54.292;18.598;2022-10-31T15:07:09;12.53;96.41
70271;SHT31;57680;54.292;18.598;2022-10-31T15:09:37;12.50;96.42
70271;SHT31;57680;54.292;18.598;2022-10-31T15:12:26;12.50;96.54
70271;SHT31;57680;54.292;18.598;2022-10-31T15:14:52;12.49;96.66
70271;SHT31;57680;54.292;18.598;2022-10-31T15:17:19;12.50;96.69
70271;SHT31;57680;54.292;18.598;2022-10-31T15:19:45;12.50;96.73
70271;SHT31;57680;54.292;18.598;2022-10-31T15:22:17;12.49;96.73
70271;SHT31;57680;54.292;18.598;2022-10-31T15:24:45;12.49;96.78
70271;SHT31;57680;54.292;18.598;2022-10-31T15:27:16;12.47;96.84
70271;SHT31;57680;54.292;18.598;2022-10-31T15:29:50;12.50;96.74
70271;SHT31;57680;54.292;18.598;2022-10-31T15:32:25;12.49;96.94
70271;SHT31;57680;54.292;18.598;2022-10-31T15:34:51;12.49;96.95
70271;SHT31;57680;54.292;18.598;2022-10-31T15:37:20;12.49;97.00
70271;SHT31;57680;54.292;18.598;2022-10-31T15:39:47;12.49;96.98
70271;SHT31;57680;54.292;18.598;2022-10-31T15:44:59;12.50;97.12
70271;SHT31;57680;54.292;18.598;2022-10-31T15:47:25;12.49;97.16
70271;SHT31;57680;54.292;18.598;2022-10-31T15:49:56;12.50;97.26
70271;SHT31;57680;54.292;18.598;2022-10-31T15:52:38;12.52;97.30
70271;SHT31;57680;54.292;18.598;2022-10-31T15:57:32;12.47;97.32
70271;SHT31;57680;54.292;18.598;2022-10-31T15:59:59;12.49;97.36
70271;SHT31;57680;54.292;18.598;2022-10-31T16:02:26;12.46;97.47
70271;SHT31;57680;54.292;18.598;2022-10-31T16:05:19;12.43;97.62
70271;SHT31;57680;54.292;18.598;2022-10-31T16:07:49;12.44;97.63
70271;SHT31;57680;54.292;18.598;2022-10-31T16:10:25;12.46;97.63
70271;SHT31;57680;54.292;18.598;2022-10-31T16:12:52;12.43;97.67
70271;SHT31;57680;54.292;18.598;2022-10-31T16:15:20;12.44;97.61
70271;SHT31;57680;54.292;18.598;2022-10-31T16:17:48;12.43;97.67
70271;SHT31;57680;54.292;18.598;2022-10-31T16:20:21;12.46;97.68
70271;SHT31;57680;54.292;18.598;2022-10-31T16:22:49;12.46;97.66
70271;SHT31;57680;54.292;18.598;2022-10-31T16:25:24;12.44;97.62
70271;SHT31;57680;54.292;18.598;2022-10-31T16:27:52;12.47;97.69
70271;SHT31;57680;54.292;18.598;2022-10-31T16:33:00;12.46;97.67
70271;SHT31;57680;54.292;18.598;2022-10-31T16:35:36;12.47;97.70
70271;SHT31;57680;54.292;18.598;2022-10-31T16:38:03;12.47;97.68
70271;SHT31;57680;54.292;18.598;2022-10-31T16:40:30;12.44;97.73
70271;SHT31;57680;54.292;18.598;2022-10-31T16:42:58;12.44;97.76
70271;SHT31;57680;54.292;18.598;2022-10-31T16:45:26;12.44;97.82
70271;SHT31;57680;54.292;18.598;2022-10-31T16:47:52;12.44;97.92
70271;SHT31;57680;54.292;18.598;2022-10-31T16:50:22;12.49;97.91
70271;SHT31;57680;54.292;18.598;2022-10-31T16:52:48;12.49;97.85
70271;SHT31;57680;54.292;18.598;2022-10-31T16:55:16;12.46;97.86
70271;SHT31;57680;54.292;18.598;2022-10-31T16:57:44;12.46;97.89
70271;SHT31;57680;54.292;18.598;2022-10-31T17:00:16;12.46;97.90
70271;SHT31;57680;54.292;18.598;2022-10-31T17:02:43;12.43;97.90
70271;SHT31;57680;54.292;18.598;2022-10-31T17:05:11;12.43;97.94
70271;SHT31;57680;54.292;18.598;2022-10-31T17:07:38;12.42;97.93
70271;SHT31;57680;54.292;18.598;2022-10-31T17:10:04;12.40;98.10
70271;SHT31;57680;54.292;18.598;2022-10-31T17:12:30;12.40;98.13
70271;SHT31;57680;54.292;18.598;2022-10-31T17:14:56;12.40;98.16
70271;SHT31;57680;54.292;18.598;2022-10-31T17:17:22;12.42;98.17
70271;SHT31;57680;54.292;18.598;2022-10-31T17:19:47;12.39;98.20
70271;SHT31;57680;54.292;18.598;2022-10-31T17:22:14;12.39;98.13
70271;SHT31;57680;54.292;18.598;2022-10-31T17:24:39;12.39;98.23
70271;SHT31;57680;54.292;18.598;2022-10-31T17:27:05;12.40;98.29
70271;SHT31;57680;54.292;18.598;2022-10-31T17:29:32;12.40;98.28
70271;SHT31;57680;54.292;18.598;2022-10-31T17:31:58;12.39;98.33
70271;SHT31;57680;54.292;18.598;2022-10-31T17:34:24;12.40;98.35
70271;SHT31;57680;54.292;18.598;2022-10-31T17:36:51;12.42;98.28
70271;SHT31;57680;54.292;18.598;2022-10-31T17:39:20;12.42;98.32
70271;SHT31;57680;54.292;18.598;2022-10-31T17:41:50;12.40;98.28
70271;SHT31;57680;54.292;18.598;2022-10-31T17:44:17;12.43;98.31
70271;SHT31;57680;54.292;18.598;2022-10-31T17:46:43;12.42;98.32
70271;SHT31;57680;54.292;18.598;2022-10-31T17:49:10;12.42;98.26
70271;SHT31;57680;54.292;18.598;2022-10-31T17:51:36;12.42;98.20
70271;SHT31;57680;54.292;18.598;2022-10-31T17:54:02;12.43;98.37
70271;SHT31;57680;54.292;18.598;2022-10-31T17:56:30;12.43;98.28
70271;SHT31;57680;54.292;18.598;2022-10-31T17:58:56;12.39;98.25